Change the Weather History Date:

Monday, January 16, 2012

  Actual Average Record
Temperature  
Mean Temperature 25 °F -  
Max Temperature 33 °F 25 °F 47 °F (1951)
Min Temperature 15 °F 5 °F -25 °F (1977)
Degree Days  
Heating Degree Days 40    
Moisture  
Dew Point 16 °F    
Average Humidity 70    
Maximum Humidity 86    
Minimum Humidity 51    
Precipitation  
Precipitation 0.00 in - - ()
Sea Level Pressure  
Sea Level Pressure 29.80 in    
Wind  
Wind Speed 13 mph (North)    
Max Wind Speed 24 mph    
Max Gust Speed 31 mph    
Visibility 10 miles    
Events      
Averages and records for this station are not official NWS values.
T = Trace of Precipitation, MM = Missing Value Source: NWS Daily Summary

Daily Weather History Graph

Daily Weather History Graph

Search for Another Location

Airport or City:

Trip Planner

Search our weather history database for the weather conditions in past years. The results will help you decide how hot, cold, wet, or windy it might be!

Date:

Astronomy

Jan. 16, 2012 Rise Set
Actual Time 7:52 AM CST 5:14 PM CST
Civil Twilight 7:20 AM CST 5:45 PM CST
Nautical Twilight 6:45 AM CST 6:20 PM CST
Astronomical Twilight 6:11 AM CST 6:54 PM CST
Moon 12:58 AM CST (1/16) 11:31 AM CST (1/16)
Length of Visible Light 10h 25m
Length of Day
9h 22m
Last Quarter, 46% of the Moon is Illuminated
Jan 16
Last Quarter
Jan 23
New
Jan 30
First Quarter
Feb 7
Full
Feb 14
Last Quarter

Hourly Weather History & Observations

Time (CST) Temp. Windchill Dew Point Humidity Pressure Visibility Wind Dir Wind Speed Gust Speed Precip Events Conditions
12:15 AM 28.4 °F 22.2 °F 21.2 °F 74% 29.68 in 10.0 mi NNW 5.8 mph - N/A   Clear
12:35 AM 33.8 °F 25.3 °F 23.0 °F 65% 29.69 in 10.0 mi NNW 11.5 mph - N/A   Clear
12:55 AM 32.0 °F 24.8 °F 24.8 °F 75% 29.70 in 10.0 mi North 8.1 mph - N/A   Clear
1:15 AM 32.0 °F 25.6 °F 24.8 °F 75% 29.70 in 10.0 mi NNW 6.9 mph - N/A   Clear
1:35 AM 30.2 °F 25.4 °F 23.0 °F 75% 29.72 in 10.0 mi NNW 4.6 mph - N/A   Clear
1:55 AM 30.2 °F 24.3 °F 23.0 °F 75% 29.73 in 10.0 mi NW 5.8 mph - N/A   Clear
2:15 AM 28.4 °F 23.3 °F 23.0 °F 80% 29.73 in 10.0 mi NW 4.6 mph - N/A   Clear
2:35 AM 28.4 °F 22.2 °F 23.0 °F 80% 29.75 in 10.0 mi NNW 5.8 mph - N/A   Clear
2:55 AM 28.4 °F 22.2 °F 24.8 °F 86% 29.75 in 10.0 mi North 5.8 mph - N/A   Clear
3:15 AM 30.2 °F 20.2 °F 24.8 °F 80% 29.75 in 10.0 mi North 12.7 mph - N/A   Clear
3:35 AM 32.0 °F 20.5 °F 24.8 °F 75% 29.75 in 10.0 mi NNE 18.4 mph - N/A   Clear
3:55 AM 30.2 °F 19.8 °F 24.8 °F 80% 29.76 in 10.0 mi North 13.8 mph - N/A   Clear
4:15 AM 30.2 °F 19.8 °F 24.8 °F 80% 29.77 in 10.0 mi North 13.8 mph 18.4 mph N/A   Clear
4:35 AM 30.2 °F 20.8 °F 24.8 °F 80% 29.78 in 10.0 mi North 11.5 mph - N/A   Clear
4:55 AM 28.4 °F 19.1 °F 24.8 °F 86% 29.79 in 10.0 mi NNE 10.4 mph - N/A   Clear
5:15 AM 28.4 °F 19.7 °F 24.8 °F 86% 29.78 in 10.0 mi NNE 9.2 mph - N/A   Scattered Clouds
5:35 AM 28.4 °F 17.5 °F 21.2 °F 74% 29.79 in 10.0 mi North 13.8 mph - N/A   Scattered Clouds
5:55 AM 26.6 °F 15.7 °F 21.2 °F 80% 29.79 in 10.0 mi North 12.7 mph - N/A   Clear
6:15 AM 26.6 °F 15.7 °F 19.4 °F 74% 29.79 in 10.0 mi North 12.7 mph - N/A   Clear
6:35 AM 26.6 °F 16.2 °F 19.4 °F 74% 29.79 in 10.0 mi North 11.5 mph - N/A   Clear
6:55 AM 26.6 °F 13.8 °F 21.2 °F 80% 29.79 in 10.0 mi NNE 17.3 mph 23.0 mph N/A   Clear
7:15 AM 24.8 °F 10.7 °F 17.6 °F 74% 29.78 in 10.0 mi NNE 19.6 mph 25.3 mph N/A   Clear
7:35 AM 24.8 °F 12.9 °F 17.6 °F 74% 29.79 in 10.0 mi NNE 13.8 mph - N/A   Clear
7:55 AM 23.0 °F 11.1 °F 17.6 °F 80% 29.80 in 10.0 mi NNE 12.7 mph - N/A   Clear
8:15 AM 21.2 °F 8.3 °F 17.6 °F 86% 29.81 in 10.0 mi NNE 13.8 mph - N/A   Clear
8:35 AM 21.2 °F 6.8 °F 15.8 °F 80% 29.81 in 10.0 mi NNE 17.3 mph - N/A   Clear
8:55 AM 19.4 °F 3.6 °F 15.8 °F 86% 29.81 in 10.0 mi North 19.6 mph - N/A   Clear
9:15 AM 21.2 °F 5.2 °F 15.8 °F 80% 29.81 in 10.0 mi NNE 21.9 mph 25.3 mph N/A   Clear
9:35 AM 21.2 °F 5.2 °F 14.0 °F 74% 29.83 in 10.0 mi NNE 21.9 mph - N/A   Clear
9:55 AM 21.2 °F 6.4 °F 14.0 °F 74% 29.83 in 10.0 mi North 18.4 mph - N/A   Clear
10:15 AM 21.2 °F 6.0 °F 14.0 °F 74% 29.83 in 10.0 mi NNE 19.6 mph - N/A   Clear
10:35 AM 23.0 °F 7.6 °F 14.0 °F 68% 29.83 in 10.0 mi NNE 21.9 mph 25.3 mph N/A   Clear
10:55 AM 23.0 °F 8.0 °F 12.2 °F 63% 29.83 in 10.0 mi North 20.7 mph 25.3 mph N/A   Clear
11:15 AM 24.8 °F 10.7 °F 14.0 °F 64% 29.82 in 10.0 mi NNE 19.6 mph - N/A   Clear
11:35 AM 24.8 °F 11.9 °F 12.2 °F 59% 29.82 in 10.0 mi NNE 16.1 mph - N/A   Clear
11:55 AM 24.8 °F 11.9 °F 12.2 °F 59% 29.83 in 10.0 mi North 16.1 mph - N/A   Clear
12:15 PM 24.8 °F 12.4 °F 12.2 °F 59% 29.82 in 10.0 mi North 15.0 mph - N/A   Clear
12:35 PM 24.8 °F 11.9 °F 12.2 °F 59% 29.82 in 10.0 mi North 16.1 mph - N/A   Clear
12:55 PM 26.6 °F 14.7 °F 12.2 °F 55% 29.83 in 10.0 mi North 15.0 mph 21.9 mph N/A   Clear
1:15 PM 26.6 °F 13.8 °F 12.2 °F 55% 29.83 in 10.0 mi North 17.3 mph 20.7 mph N/A   Clear
1:35 PM 26.6 °F 14.3 °F 12.2 °F 55% 29.82 in 10.0 mi North 16.1 mph - N/A   Clear
2:15 PM 26.6 °F 13.8 °F 12.2 °F 55% 29.81 in 10.0 mi North 17.3 mph - N/A   Clear
2:35 PM 26.6 °F 13.4 °F 12.2 °F 55% 29.80 in 10.0 mi North 18.4 mph - N/A   Clear
2:55 PM 28.4 °F 15.8 °F 12.2 °F 51% 29.80 in 10.0 mi North 18.4 mph 23.0 mph N/A   Clear
3:15 PM 26.6 °F 12.7 °F 12.2 °F 55% 29.81 in 10.0 mi North 20.7 mph 27.6 mph N/A   Clear
3:35 PM 24.8 °F 10.7 °F 10.4 °F 54% 29.82 in 10.0 mi North 19.6 mph - N/A   Clear
3:55 PM 24.8 °F 10.7 °F 10.4 °F 54% 29.83 in 10.0 mi North 19.6 mph 24.2 mph N/A   Clear
4:15 PM 23.0 °F 9.2 °F 10.4 °F 59% 29.84 in 10.0 mi North 17.3 mph 23.0 mph N/A   Clear
4:35 PM 21.2 °F 5.6 °F 10.4 °F 63% 29.84 in 10.0 mi North 20.7 mph 25.3 mph N/A   Clear
4:55 PM 21.2 °F 6.4 °F 10.4 °F 63% 29.85 in 10.0 mi North 18.4 mph - N/A   Clear
5:15 PM 21.2 °F 5.6 °F 10.4 °F 63% 29.85 in 10.0 mi North 20.7 mph 24.2 mph N/A   Clear
5:35 PM 19.4 °F 2.5 °F 10.4 °F 68% 29.86 in 10.0 mi North 23.0 mph 27.6 mph N/A   Clear
5:55 PM 19.4 °F 2.8 °F 10.4 °F 68% 29.86 in 10.0 mi North 21.9 mph 27.6 mph N/A   Clear
6:15 PM 19.4 °F 3.2 °F 10.4 °F 68% 29.86 in 10.0 mi North 20.7 mph 26.5 mph N/A   Clear
6:35 PM 19.4 °F 2.1 °F 10.4 °F 68% 29.86 in 10.0 mi North 24.2 mph 31.1 mph N/A   Clear
6:55 PM 17.6 °F 0.9 °F 10.4 °F 73% 29.86 in 10.0 mi North 20.7 mph 26.5 mph N/A   Clear
7:15 PM 17.6 °F 1.7 °F 10.4 °F 73% 29.87 in 10.0 mi North 18.4 mph 21.9 mph N/A   Clear
7:35 PM 17.6 °F 3.2 °F 10.4 °F 73% 29.88 in 10.0 mi NNE 15.0 mph 29.9 mph N/A   Clear
8:15 PM 17.6 °F 2.2 °F 8.6 °F 68% 29.91 in 10.0 mi NNE 17.3 mph - N/A   Clear
8:55 PM 15.8 °F 0.9 °F 8.6 °F 73% 29.92 in 10.0 mi North 15.0 mph 20.7 mph N/A   Clear
9:15 PM 15.8 °F 0.3 °F 8.6 °F 73% 29.93 in 10.0 mi North 16.1 mph - N/A   Clear
9:35 PM 15.8 °F -0.6 °F 8.6 °F 73% 29.93 in 10.0 mi North 18.4 mph - N/A   Clear
9:55 PM 15.8 °F -1.1 °F 8.6 °F 73% 29.93 in 10.0 mi North 19.6 mph - N/A   Clear
10:15 PM 15.8 °F -1.5 °F 8.6 °F 73% 29.93 in 10.0 mi North 20.7 mph - N/A   Clear
10:35 PM 15.8 °F -2.3 °F 8.6 °F 73% 29.92 in 10.0 mi North 23.0 mph 28.8 mph N/A   Clear
10:55 PM 15.8 °F -1.1 °F 8.6 °F 73% 29.93 in 10.0 mi North 19.6 mph 31.1 mph N/A   Clear
11:15 PM 15.8 °F -0.6 °F 8.6 °F 73% 29.94 in 10.0 mi North 18.4 mph 26.5 mph N/A   Clear
11:35 PM 14.0 °F -3.9 °F 8.6 °F 79% 29.94 in 10.0 mi North 20.7 mph 26.5 mph N/A   Mostly Cloudy